SVA501 OEGS-OEHL
Flight info
| Callsign | SVA501 |
|---|---|
| Flight time | 0h 34m |
| Altitude | 12000 |
| Route | GAS G662 HIL |
| Aircraft | A321/M-SDE3FGHIRWY/LB1 |
Departure
| Time | 2026-04-22 16:26 |
|---|---|
| Airport | Prince Naif bin Abdulaziz International Airport (OEGS) |
Arrival
| Time | 2026-04-22 17:01 |
|---|---|
| Airport | Hail International Airport (OEHL) |
| Time | Latitude | Longitude | Altitude | Speed | Heading |
|---|---|---|---|---|---|
| 2026-04-22 16:07 | 26.30315 | 43.77048 | 2134 ft | 0 kts | 287° |
| 2026-04-22 16:18 | 26.30312 | 43.77056 | 2135 ft | 4 kts | 263° |
| 2026-04-22 16:18 | 26.30308 | 43.77060 | 2134 ft | 4 kts | 166° |
| 2026-04-22 16:18 | 26.30321 | 43.77055 | 2136 ft | 0 kts | 154° |
| 2026-04-22 16:21 | 26.30318 | 43.77058 | 2135 ft | 1 kts | 141° |
| 2026-04-22 16:22 | 26.30302 | 43.77148 | 2134 ft | 14 kts | 143° |
| 2026-04-22 16:22 | 26.30188 | 43.77214 | 2135 ft | 23 kts | 152° |
| 2026-04-22 16:22 | 26.30066 | 43.77286 | 2134 ft | 29 kts | 152° |
| 2026-04-22 16:23 | 26.29806 | 43.77433 | 2134 ft | 39 kts | 153° |
| 2026-04-22 16:23 | 26.29545 | 43.77582 | 2133 ft | 46 kts | 153° |
| 2026-04-22 16:23 | 26.29288 | 43.77727 | 2132 ft | 29 kts | 155° |
| 2026-04-22 16:24 | 26.29189 | 43.77783 | 2132 ft | 6 kts | 153° |
| 2026-04-22 16:24 | 26.29061 | 43.77940 | 2131 ft | 23 kts | 106° |
| 2026-04-22 16:24 | 26.29053 | 43.77983 | 2130 ft | 0 kts | 95° |
| 2026-04-22 16:25 | 26.29054 | 43.78013 | 2130 ft | 9 kts | 82° |
| 2026-04-22 16:25 | 26.29200 | 43.78025 | 2133 ft | 21 kts | 334° |
| 2026-04-22 16:25 | 26.29470 | 43.77874 | 2135 ft | 63 kts | 334° |
| 2026-04-22 16:26 | 26.29818 | 43.77681 | 2135 ft | 103 kts | 333° |
| 2026-04-22 16:26 | 26.30622 | 43.77225 | 2136 ft | 152 kts | 333° |
| 2026-04-22 16:26 | 26.32012 | 43.76433 | 2583 ft | 169 kts | 337° |
| 2026-04-22 16:26 | 26.32706 | 43.76031 | 2991 ft | 169 kts | 336° |
| 2026-04-22 16:27 | 26.33760 | 43.75425 | 3482 ft | 174 kts | 336° |
| 2026-04-22 16:27 | 26.34882 | 43.74787 | 3644 ft | 190 kts | 336° |
| 2026-04-22 16:27 | 26.36125 | 43.74080 | 3758 ft | 212 kts | 336° |
| 2026-04-22 16:27 | 26.37505 | 43.73294 | 3892 ft | 235 kts | 335° |
| 2026-04-22 16:28 | 26.39032 | 43.72422 | 4080 ft | 259 kts | 335° |
| 2026-04-22 16:28 | 26.40701 | 43.71469 | 4406 ft | 275 kts | 335° |
| 2026-04-22 16:28 | 26.42430 | 43.70482 | 5000 ft | 281 kts | 336° |
| 2026-04-22 16:28 | 26.44299 | 43.69901 | 5584 ft | 281 kts | 2° |
| 2026-04-22 16:29 | 26.46195 | 43.70342 | 6143 ft | 282 kts | 30° |
| 2026-04-22 16:29 | 26.47706 | 43.71713 | 6697 ft | 282 kts | 55° |
| 2026-04-22 16:29 | 26.48506 | 43.73693 | 7230 ft | 283 kts | 82° |
| 2026-04-22 16:29 | 26.48422 | 43.75867 | 7747 ft | 284 kts | 109° |
| 2026-04-22 16:30 | 26.47857 | 43.77215 | 8091 ft | 285 kts | 127° |
| 2026-04-22 16:30 | 26.45793 | 43.79004 | 8786 ft | 285 kts | 164° |
| 2026-04-22 16:30 | 26.43843 | 43.79260 | 9357 ft | 284 kts | 186° |
| 2026-04-22 16:30 | 26.41863 | 43.79087 | 9950 ft | 287 kts | 187° |
| 2026-04-22 16:31 | 26.39867 | 43.78788 | 10256 ft | 298 kts | 199° |
| 2026-04-22 16:31 | 26.37962 | 43.77763 | 10375 ft | 313 kts | 217° |
| 2026-04-22 16:31 | 26.36367 | 43.76039 | 10545 ft | 325 kts | 234° |
| 2026-04-22 16:31 | 26.35294 | 43.73812 | 10984 ft | 329 kts | 251° |
| 2026-04-22 16:32 | 26.34861 | 43.71310 | 11544 ft | 332 kts | 267° |
| 2026-04-22 16:32 | 26.35133 | 43.68752 | 11906 ft | 336 kts | 283° |
| 2026-04-22 16:32 | 26.36126 | 43.66387 | 11995 ft | 339 kts | 297° |
| 2026-04-22 16:32 | 26.37366 | 43.64144 | 12009 ft | 339 kts | 297° |
| 2026-04-22 16:33 | 26.38605 | 43.61912 | 12016 ft | 339 kts | 297° |
| 2026-04-22 16:33 | 26.39849 | 43.59672 | 12015 ft | 339 kts | 297° |
| 2026-04-22 16:33 | 26.41088 | 43.57431 | 12017 ft | 340 kts | 297° |
| 2026-04-22 16:33 | 26.42323 | 43.55183 | 12018 ft | 339 kts | 297° |
| 2026-04-22 16:34 | 26.43551 | 43.52935 | 12022 ft | 339 kts | 297° |
| 2026-04-22 16:34 | 26.44777 | 43.50685 | 12025 ft | 340 kts | 297° |
| 2026-04-22 16:34 | 26.46005 | 43.48432 | 12027 ft | 339 kts | 297° |
| 2026-04-22 16:34 | 26.47228 | 43.46183 | 12030 ft | 339 kts | 297° |
| 2026-04-22 16:35 | 26.48455 | 43.43931 | 12032 ft | 340 kts | 297° |
| 2026-04-22 16:35 | 26.49683 | 43.41681 | 12040 ft | 340 kts | 297° |
| 2026-04-22 16:35 | 26.50917 | 43.39424 | 12037 ft | 340 kts | 298° |
| 2026-04-22 16:35 | 26.52148 | 43.37169 | 12036 ft | 341 kts | 297° |
| 2026-04-22 16:36 | 26.53399 | 43.34877 | 12041 ft | 341 kts | 297° |
| 2026-04-22 16:36 | 26.54631 | 43.32617 | 12044 ft | 341 kts | 297° |
| 2026-04-22 16:36 | 26.55861 | 43.30358 | 12046 ft | 341 kts | 297° |
| 2026-04-22 16:36 | 26.57091 | 43.28094 | 12047 ft | 341 kts | 297° |
| 2026-04-22 16:37 | 26.58321 | 43.25829 | 12053 ft | 341 kts | 297° |
| 2026-04-22 16:37 | 26.59553 | 43.23563 | 12054 ft | 341 kts | 297° |
| 2026-04-22 16:37 | 26.60787 | 43.21300 | 12053 ft | 341 kts | 297° |
| 2026-04-22 16:37 | 26.62021 | 43.19030 | 12054 ft | 341 kts | 297° |
| 2026-04-22 16:38 | 26.63248 | 43.16763 | 12055 ft | 341 kts | 297° |
| 2026-04-22 16:38 | 26.64476 | 43.14493 | 12056 ft | 341 kts | 297° |
| 2026-04-22 16:38 | 26.65706 | 43.12224 | 12057 ft | 342 kts | 297° |
| 2026-04-22 16:38 | 26.66941 | 43.09949 | 12060 ft | 342 kts | 297° |
| 2026-04-22 16:39 | 26.68172 | 43.07679 | 12066 ft | 342 kts | 297° |
| 2026-04-22 16:39 | 26.69402 | 43.05408 | 12067 ft | 342 kts | 297° |
| 2026-04-22 16:39 | 26.70635 | 43.03132 | 12068 ft | 342 kts | 297° |
| 2026-04-22 16:39 | 26.71863 | 43.00862 | 12075 ft | 342 kts | 297° |
| 2026-04-22 16:40 | 26.73091 | 42.98585 | 12073 ft | 342 kts | 298° |
| 2026-04-22 16:40 | 26.74318 | 42.96309 | 12072 ft | 342 kts | 298° |
| 2026-04-22 16:40 | 26.76780 | 42.91760 | 12074 ft | 342 kts | 298° |
| 2026-04-22 16:41 | 26.78011 | 42.89484 | 12078 ft | 342 kts | 297° |
| 2026-04-22 16:41 | 26.79242 | 42.87205 | 12079 ft | 342 kts | 297° |
| 2026-04-22 16:41 | 26.80470 | 42.84930 | 12077 ft | 342 kts | 298° |
| 2026-04-22 16:41 | 26.81699 | 42.82651 | 12076 ft | 341 kts | 297° |
| 2026-04-22 16:42 | 26.82927 | 42.80375 | 12075 ft | 342 kts | 297° |
| 2026-04-22 16:42 | 26.84151 | 42.78096 | 12075 ft | 342 kts | 297° |
| 2026-04-22 16:42 | 26.85374 | 42.75814 | 12078 ft | 342 kts | 297° |
| 2026-04-22 16:42 | 26.86599 | 42.73533 | 12079 ft | 342 kts | 297° |
| 2026-04-22 16:43 | 26.87824 | 42.71255 | 12081 ft | 342 kts | 297° |
| 2026-04-22 16:43 | 26.89068 | 42.68947 | 12084 ft | 342 kts | 298° |
| 2026-04-22 16:43 | 26.90279 | 42.66698 | 12084 ft | 342 kts | 297° |
| 2026-04-22 16:43 | 26.91520 | 42.64387 | 12085 ft | 342 kts | 298° |
| 2026-04-22 16:44 | 26.92743 | 42.62108 | 12086 ft | 342 kts | 297° |
| 2026-04-22 16:44 | 26.93969 | 42.59821 | 12091 ft | 342 kts | 298° |
| 2026-04-22 16:44 | 26.95190 | 42.57541 | 12085 ft | 342 kts | 298° |
| 2026-04-22 16:44 | 26.96417 | 42.55253 | 12081 ft | 343 kts | 298° |
| 2026-04-22 16:45 | 26.97643 | 42.52964 | 12082 ft | 343 kts | 298° |
| 2026-04-22 16:45 | 26.98871 | 42.50667 | 12084 ft | 343 kts | 298° |
| 2026-04-22 16:45 | 27.00096 | 42.48376 | 12086 ft | 343 kts | 298° |
| 2026-04-22 16:45 | 27.01324 | 42.46079 | 12086 ft | 343 kts | 298° |
| 2026-04-22 16:46 | 27.02554 | 42.43780 | 12091 ft | 343 kts | 298° |
| 2026-04-22 16:46 | 27.03779 | 42.41483 | 12091 ft | 343 kts | 298° |
| 2026-04-22 16:46 | 27.05001 | 42.39189 | 12089 ft | 343 kts | 298° |
| 2026-04-22 16:46 | 27.06229 | 42.36885 | 12081 ft | 344 kts | 298° |
| 2026-04-22 16:47 | 27.07458 | 42.34577 | 12075 ft | 345 kts | 298° |
| 2026-04-22 16:47 | 27.08855 | 42.32378 | 12073 ft | 348 kts | 309° |
| 2026-04-22 16:47 | 27.09997 | 42.31108 | 12076 ft | 351 kts | 315° |
| 2026-04-22 16:47 | 27.12421 | 42.28662 | 12082 ft | 351 kts | 315° |
| 2026-04-22 16:48 | 27.14234 | 42.26821 | 12083 ft | 351 kts | 315° |
| 2026-04-22 16:48 | 27.16041 | 42.24976 | 12083 ft | 351 kts | 314° |
| 2026-04-22 16:48 | 27.17846 | 42.23129 | 12089 ft | 351 kts | 314° |
| 2026-04-22 16:48 | 27.19634 | 42.21303 | 11903 ft | 342 kts | 315° |
| 2026-04-22 16:49 | 27.21359 | 42.19545 | 11657 ft | 326 kts | 315° |
| 2026-04-22 16:49 | 27.23030 | 42.17843 | 11413 ft | 324 kts | 315° |
| 2026-04-22 16:49 | 27.24694 | 42.16144 | 10986 ft | 319 kts | 315° |
| 2026-04-22 16:49 | 27.26323 | 42.14474 | 10245 ft | 315 kts | 316° |
| 2026-04-22 16:50 | 27.27949 | 42.12804 | 10004 ft | 315 kts | 316° |
| 2026-04-22 16:50 | 27.29527 | 42.11186 | 9627 ft | 301 kts | 316° |
| 2026-04-22 16:50 | 27.31050 | 42.09627 | 8931 ft | 293 kts | 316° |
| 2026-04-22 16:50 | 27.32545 | 42.08093 | 8180 ft | 289 kts | 317° |
| 2026-04-22 16:51 | 27.34028 | 42.06571 | 7401 ft | 288 kts | 317° |
| 2026-04-22 16:51 | 27.35518 | 42.05042 | 6665 ft | 285 kts | 319° |
| 2026-04-22 16:51 | 27.36971 | 42.03550 | 6221 ft | 280 kts | 319° |
| 2026-04-22 16:51 | 27.38417 | 42.02069 | 6090 ft | 282 kts | 319° |
| 2026-04-22 16:52 | 27.39871 | 42.00580 | 6088 ft | 284 kts | 319° |
| 2026-04-22 16:52 | 27.41342 | 41.99072 | 6087 ft | 285 kts | 319° |
| 2026-04-22 16:52 | 27.42802 | 41.97572 | 6088 ft | 285 kts | 319° |
| 2026-04-22 16:52 | 27.44267 | 41.96065 | 6090 ft | 285 kts | 319° |
| 2026-04-22 16:53 | 27.45723 | 41.94566 | 6092 ft | 285 kts | 319° |
| 2026-04-22 16:53 | 27.47185 | 41.93059 | 6092 ft | 285 kts | 319° |
| 2026-04-22 16:53 | 27.48643 | 41.91554 | 6091 ft | 283 kts | 319° |
| 2026-04-22 16:53 | 27.50093 | 41.90061 | 6101 ft | 277 kts | 318° |
| 2026-04-22 16:54 | 27.51515 | 41.88598 | 6078 ft | 281 kts | 319° |
| 2026-04-22 16:54 | 27.52971 | 41.87103 | 6089 ft | 284 kts | 319° |
| 2026-04-22 16:54 | 27.54427 | 41.85608 | 6094 ft | 285 kts | 319° |
| 2026-04-22 16:54 | 27.55894 | 41.84099 | 6092 ft | 285 kts | 319° |
| 2026-04-22 16:55 | 27.57353 | 41.82596 | 6093 ft | 283 kts | 319° |
| 2026-04-22 16:55 | 27.58810 | 41.81094 | 6092 ft | 283 kts | 318° |
| 2026-04-22 16:55 | 27.60259 | 41.79597 | 6091 ft | 282 kts | 318° |
| 2026-04-22 16:55 | 27.61657 | 41.78153 | 6091 ft | 264 kts | 319° |
| 2026-04-22 16:56 | 27.62939 | 41.76779 | 6044 ft | 249 kts | 311° |
| 2026-04-22 16:56 | 27.63733 | 41.75098 | 6020 ft | 243 kts | 284° |
| 2026-04-22 16:56 | 27.63802 | 41.73225 | 6014 ft | 239 kts | 258° |
| 2026-04-22 16:56 | 27.63171 | 41.71527 | 5962 ft | 237 kts | 233° |
| 2026-04-22 16:57 | 27.61962 | 41.70297 | 5847 ft | 234 kts | 206° |
| 2026-04-22 16:57 | 27.60489 | 41.69773 | 5727 ft | 211 kts | 182° |
| 2026-04-22 16:57 | 27.59102 | 41.69674 | 5602 ft | 191 kts | 181° |
| 2026-04-22 16:57 | 27.57805 | 41.69584 | 5495 ft | 183 kts | 181° |
| 2026-04-22 16:58 | 27.56952 | 41.69526 | 5434 ft | 182 kts | 181° |
| 2026-04-22 16:58 | 27.55297 | 41.69412 | 5191 ft | 178 kts | 181° |
| 2026-04-22 16:58 | 27.54044 | 41.69326 | 4973 ft | 176 kts | 180° |
| 2026-04-22 16:58 | 27.52877 | 41.69245 | 4749 ft | 168 kts | 181° |
| 2026-04-22 16:59 | 27.51726 | 41.69166 | 4538 ft | 164 kts | 181° |
| 2026-04-22 16:59 | 27.50573 | 41.69088 | 4313 ft | 163 kts | 180° |
| 2026-04-22 16:59 | 27.49444 | 41.69010 | 4084 ft | 164 kts | 181° |
| 2026-04-22 16:59 | 27.48298 | 41.68933 | 3797 ft | 165 kts | 182° |
| 2026-04-22 17:00 | 27.47168 | 41.68855 | 3555 ft | 163 kts | 182° |
| 2026-04-22 17:00 | 27.45271 | 41.68722 | 3285 ft | 162 kts | 181° |
| 2026-04-22 17:00 | 27.44292 | 41.68664 | 3272 ft | 113 kts | 182° |
| 2026-04-22 17:01 | 27.43679 | 41.68620 | 3285 ft | 63 kts | 184° |
| 2026-04-22 17:01 | 27.43346 | 41.68600 | 3290 ft | 16 kts | 184° |
| 2026-04-22 17:01 | 27.43299 | 41.68598 | 3291 ft | 5 kts | 180° |
| 2026-04-22 17:01 | 27.43273 | 41.68599 | 3291 ft | 2 kts | 174° |
| 2026-04-22 17:02 | 27.43264 | 41.68600 | 3291 ft | 0 kts | 173° |
| 2026-04-22 17:02 | 27.43259 | 41.68601 | 3291 ft | 4 kts | 173° |
| 2026-04-22 17:02 | 27.43204 | 41.68611 | 3292 ft | 12 kts | 168° |
| 2026-04-22 17:02 | 27.43106 | 41.68648 | 3292 ft | 17 kts | 156° |
| 2026-04-22 17:03 | 27.43019 | 41.68694 | 3293 ft | 13 kts | 154° |
| 2026-04-22 17:03 | 27.42981 | 41.68776 | 3293 ft | 15 kts | 58° |
| 2026-04-22 17:03 | 27.43119 | 41.68806 | 3291 ft | 26 kts | 2° |
| 2026-04-22 17:03 | 27.43332 | 41.68821 | 3289 ft | 36 kts | 4° |
| 2026-04-22 17:04 | 27.43610 | 41.68840 | 3285 ft | 39 kts | 3° |
| 2026-04-22 17:04 | 27.43832 | 41.68856 | 3282 ft | 29 kts | 4° |
| 2026-04-22 17:04 | 27.44063 | 41.68871 | 3276 ft | 27 kts | 4° |
| 2026-04-22 17:04 | 27.44289 | 41.68887 | 3277 ft | 37 kts | 4° |
| 2026-04-22 17:05 | 27.44524 | 41.68903 | 3271 ft | 37 kts | 4° |
| 2026-04-22 17:05 | 27.44812 | 41.68925 | 3270 ft | 46 kts | 4° |
| 2026-04-22 17:05 | 27.44972 | 41.68898 | 3269 ft | 15 kts | 290° |
| 2026-04-22 17:05 | 27.44891 | 41.68796 | 3270 ft | 22 kts | 213° |
| 2026-04-22 17:06 | 27.44729 | 41.68710 | 3273 ft | 30 kts | 199° |
| 2026-04-22 17:06 | 27.44495 | 41.68674 | 3272 ft | 39 kts | 184° |
| 2026-04-22 17:06 | 27.44201 | 41.68655 | 3272 ft | 46 kts | 184° |
| 2026-04-22 17:06 | 27.43908 | 41.68635 | 3280 ft | 34 kts | 183° |
| 2026-04-22 17:07 | 27.43823 | 41.68569 | 3282 ft | 15 kts | 269° |
| 2026-04-22 17:07 | 27.43832 | 41.68415 | 3282 ft | 24 kts | 276° |
| 2026-04-22 17:07 | 27.43975 | 41.68286 | 3281 ft | 32 kts | 333° |
| 2026-04-22 17:07 | 27.44147 | 41.68196 | 3275 ft | 26 kts | 333° |
| 2026-04-22 17:08 | 27.44340 | 41.68086 | 3274 ft | 36 kts | 334° |
| 2026-04-22 17:08 | 27.44595 | 41.67947 | 3272 ft | 45 kts | 334° |
| 2026-04-22 17:08 | 27.44836 | 41.67813 | 3270 ft | 21 kts | 334° |
| 2026-04-22 17:08 | 27.44999 | 41.67831 | 3267 ft | 30 kts | 24° |
| 2026-04-22 17:09 | 27.45145 | 41.67897 | 3267 ft | 19 kts | 2° |
| 2026-04-22 17:09 | 27.45293 | 41.67935 | 3266 ft | 15 kts | 21° |
| 2026-04-22 17:09 | 27.45379 | 41.67988 | 3262 ft | 17 kts | 43° |
| 2026-04-22 17:09 | 27.45507 | 41.68085 | 3263 ft | 28 kts | 37° |
| 2026-04-22 17:10 | 27.45635 | 41.68205 | 3264 ft | 9 kts | 345° |
| 2026-04-22 17:10 | 27.45717 | 41.68140 | 3263 ft | 19 kts | 335° |
| 2026-04-22 17:10 | 27.45802 | 41.68184 | 3263 ft | 2 kts | 42° |
| 2026-04-22 17:10 | 27.45841 | 41.68219 | 3263 ft | 12 kts | 42° |
| 2026-04-22 17:11 | 27.45842 | 41.68320 | 3262 ft | 20 kts | 136° |
| 2026-04-22 17:11 | 27.45743 | 41.68418 | 3263 ft | 11 kts | 139° |
| 2026-04-22 17:11 | 27.45723 | 41.68439 | 3263 ft | 0 kts | 139° |
| 2026-04-22 17:11 | 27.45685 | 41.68449 | 3263 ft | 0 kts | 57° |